createdAt,value
2019-03-03T00:00:36.339Z,9.60
2019-03-03T00:03:04.787Z,9.70
2019-03-03T00:05:33.159Z,9.70
2019-03-03T00:08:01.549Z,9.70
2019-03-03T00:10:30.092Z,9.60
2019-03-03T00:12:58.476Z,9.60
2019-03-03T00:15:26.848Z,9.70
2019-03-03T00:17:55.234Z,9.70
2019-03-03T00:20:23.604Z,9.70
2019-03-03T00:22:51.992Z,9.80
2019-03-03T00:25:20.389Z,9.70
2019-03-03T00:27:48.735Z,9.70
2019-03-03T00:30:21.784Z,9.80
2019-03-03T00:32:50.168Z,9.70
2019-03-03T00:35:18.683Z,9.70
2019-03-03T00:37:54.194Z,9.80
2019-03-03T00:40:36.384Z,9.70
2019-03-03T00:43:23.011Z,9.80
2019-03-03T00:45:59.010Z,9.80
2019-03-03T00:48:45.255Z,9.80
2019-03-03T00:51:30.515Z,9.80
2019-03-03T00:54:09.835Z,9.90
2019-03-03T00:56:39.867Z,9.90
2019-03-03T00:59:09.884Z,9.90
2019-03-03T01:01:45.381Z,9.90
2019-03-03T01:04:24.180Z,9.90
2019-03-03T01:07:06.295Z,9.90
2019-03-03T01:09:38.984Z,10.00
2019-03-03T01:12:18.263Z,10.00
2019-03-03T01:14:51.236Z,10.00
2019-03-03T01:17:24.195Z,10.10
2019-03-03T01:20:12.055Z,10.10
2019-03-03T01:22:50.835Z,10.00
2019-03-03T01:25:19.231Z,10.00
2019-03-03T01:27:47.628Z,10.00
2019-03-03T01:30:16.016Z,9.90
2019-03-03T01:32:44.397Z,10.00
2019-03-03T01:35:13.084Z,10.00
2019-03-03T01:37:41.536Z,10.00
2019-03-03T01:40:12.079Z,10.00
2019-03-03T01:42:40.525Z,9.90
2019-03-03T01:45:15.605Z,10.00
2019-03-03T01:47:43.995Z,9.90
2019-03-03T01:50:13.038Z,9.90
2019-03-03T01:52:41.476Z,9.90
2019-03-03T01:55:13.310Z,9.80
2019-03-03T01:57:41.762Z,9.70
2019-03-03T02:00:21.657Z,9.80
2019-03-03T02:02:50.203Z,9.90
2019-03-03T02:05:19.020Z,9.90
2019-03-03T02:07:47.472Z,10.00
2019-03-03T02:10:16.783Z,10.00
2019-03-03T02:12:45.184Z,9.90
2019-03-03T02:15:13.852Z,10.00
2019-03-03T02:17:42.217Z,9.90
2019-03-03T02:20:11.550Z,9.90
2019-03-03T02:22:39.934Z,10.00
2019-03-03T02:25:10.736Z,10.00
2019-03-03T02:27:39.116Z,10.00
2019-03-03T02:30:19.456Z,10.10
2019-03-03T02:32:48.075Z,10.10
2019-03-03T02:35:16.541Z,10.10
2019-03-03T02:37:44.916Z,10.10
2019-03-03T02:40:19.723Z,10.20
2019-03-03T02:42:48.307Z,10.20
2019-03-03T02:45:18.543Z,10.20
2019-03-03T02:47:46.933Z,10.20
2019-03-03T02:50:16.177Z,10.20
2019-03-03T02:52:44.567Z,10.20
2019-03-03T02:55:17.397Z,10.20
2019-03-03T02:57:45.793Z,10.20
2019-03-03T03:00:23.965Z,10.20
2019-03-03T03:02:53.997Z,10.20
2019-03-03T03:05:42.096Z,10.20
2019-03-03T03:08:12.127Z,10.20
2019-03-03T03:10:42.141Z,10.10
2019-03-03T03:13:17.936Z,10.20
2019-03-03T03:15:50.892Z,10.10
2019-03-03T03:18:37.096Z,10.10
2019-03-03T03:21:13.239Z,10.20
2019-03-03T03:23:43.255Z,10.20
2019-03-03T03:26:25.156Z,10.20
2019-03-03T03:29:01.307Z,10.20
2019-03-03T03:31:34.000Z,10.20
2019-03-03T03:34:06.719Z,10.20
2019-03-03T03:36:39.490Z,10.20
2019-03-03T03:39:12.349Z,10.20
2019-03-03T03:41:45.052Z,10.20
2019-03-03T03:44:15.106Z,10.10
2019-03-03T03:46:45.125Z,10.20
2019-03-03T03:49:31.383Z,10.20
2019-03-03T03:52:04.130Z,10.20
2019-03-03T03:54:34.174Z,10.20
2019-03-03T03:57:04.195Z,10.10
2019-03-03T03:59:37.240Z,10.20
2019-03-03T04:02:16.335Z,10.20
2019-03-03T04:04:55.419Z,10.20
2019-03-03T04:07:25.433Z,10.30
2019-03-03T04:10:07.417Z,10.20
2019-03-03T04:12:37.437Z,10.20
2019-03-03T04:15:10.091Z,10.20
2019-03-03T04:17:43.231Z,10.20
2019-03-03T04:20:29.724Z,10.30
2019-03-03T04:23:02.459Z,10.20
2019-03-03T04:25:38.487Z,10.20
2019-03-03T04:28:23.854Z,10.20
2019-03-03T04:31:12.323Z,10.20
2019-03-03T04:34:04.364Z,10.10
2019-03-03T04:36:37.108Z,10.20
2019-03-03T04:39:08.191Z,10.20
2019-03-03T04:41:54.680Z,10.20
2019-03-03T04:44:24.719Z,10.10
2019-03-03T04:47:03.541Z,10.10
2019-03-03T04:49:48.863Z,10.20
2019-03-03T04:55:25.840Z,10.20
2019-03-03T04:57:55.864Z,10.10
2019-03-03T05:00:35.019Z,10.10
2019-03-03T05:03:13.807Z,10.20
2019-03-03T05:06:00.196Z,10.10
2019-03-03T05:08:30.447Z,10.10
2019-03-03T05:11:03.128Z,10.10
2019-03-03T05:13:33.153Z,10.10
2019-03-03T05:16:03.183Z,10.10
2019-03-03T05:18:36.215Z,10.10
2019-03-03T05:21:04.612Z,10.10
2019-03-03T05:23:32.988Z,10.10
2019-03-03T05:26:01.369Z,10.10
2019-03-03T05:28:29.762Z,10.20
2019-03-03T05:30:58.152Z,10.20
2019-03-03T05:33:26.531Z,10.20
2019-03-03T05:35:54.927Z,10.20
2019-03-03T05:38:23.312Z,10.20
2019-03-03T05:40:51.700Z,10.30
2019-03-03T05:43:20.092Z,10.30
2019-03-03T05:45:48.524Z,10.30
2019-03-03T05:48:16.941Z,10.20
2019-03-03T05:50:45.392Z,10.20
2019-03-03T05:53:13.781Z,10.30
2019-03-03T05:55:42.167Z,10.30
2019-03-03T05:58:10.564Z,10.20
2019-03-03T06:00:38.961Z,10.30
2019-03-03T06:03:07.353Z,10.30
2019-03-03T06:05:35.731Z,10.20
2019-03-03T06:08:04.112Z,10.30
2019-03-03T06:10:32.507Z,10.20
2019-03-03T06:13:00.906Z,10.20
2019-03-03T06:15:29.288Z,10.30
2019-03-03T06:17:57.668Z,10.40
2019-03-03T06:20:27.829Z,10.40
2019-03-03T06:22:56.327Z,10.40
2019-03-03T06:25:24.776Z,10.50
2019-03-03T06:27:53.171Z,10.50
2019-03-03T06:30:21.556Z,10.50
2019-03-03T06:32:49.947Z,10.40
2019-03-03T06:35:18.344Z,10.40
2019-03-03T06:37:46.739Z,10.40
2019-03-03T06:40:15.128Z,10.40
2019-03-03T06:42:43.515Z,10.40
2019-03-03T06:45:13.647Z,10.40
2019-03-03T06:47:42.029Z,10.30
2019-03-03T06:50:11.855Z,10.40
2019-03-03T06:52:40.236Z,10.50
2019-03-03T06:55:08.955Z,10.50
2019-03-03T06:57:37.431Z,10.60
2019-03-03T07:00:11.481Z,10.60
2019-03-03T07:02:39.854Z,10.70
2019-03-03T07:05:09.773Z,10.70
2019-03-03T07:07:38.333Z,10.70
2019-03-03T07:10:09.752Z,10.80
2019-03-03T07:12:38.136Z,10.80
2019-03-03T07:15:09.939Z,10.80
2019-03-03T07:17:38.311Z,10.80
2019-03-03T07:20:09.143Z,10.80
2019-03-03T07:22:37.522Z,10.70
2019-03-03T07:25:13.872Z,10.50
2019-03-03T07:27:42.251Z,10.40
2019-03-03T07:30:15.059Z,10.40
2019-03-03T07:32:54.017Z,10.40
2019-03-03T07:35:22.412Z,10.40
2019-03-03T07:37:50.795Z,10.40
2019-03-03T07:40:19.191Z,10.40
2019-03-03T07:42:47.576Z,10.40
2019-03-03T07:45:15.947Z,10.40
2019-03-03T07:47:44.336Z,10.50
2019-03-03T07:50:12.789Z,10.50
2019-03-03T07:52:41.192Z,10.40
2019-03-03T07:55:10.442Z,10.30
2019-03-03T07:57:38.836Z,10.20
2019-03-03T08:00:10.332Z,10.20
2019-03-03T08:02:38.715Z,10.20
2019-03-03T08:05:08.852Z,10.30
2019-03-03T08:07:37.307Z,10.20
2019-03-03T08:10:08.760Z,10.30
2019-03-03T08:12:37.143Z,10.20
2019-03-03T08:15:08.461Z,10.20
2019-03-03T08:17:36.840Z,10.30
2019-03-03T08:20:08.567Z,10.30
2019-03-03T08:22:37.020Z,10.30
2019-03-03T08:25:07.940Z,10.30
2019-03-03T08:27:36.316Z,10.30
2019-03-03T08:30:07.785Z,10.40
2019-03-03T08:32:36.251Z,10.40
2019-03-03T08:35:09.864Z,10.40
2019-03-03T08:37:38.251Z,10.50
2019-03-03T08:40:09.164Z,10.40
2019-03-03T08:42:50.987Z,10.50
2019-03-03T08:45:21.008Z,10.60
2019-03-03T08:47:56.731Z,10.50
2019-03-03T08:50:32.468Z,10.50
2019-03-03T08:53:14.451Z,10.50
2019-03-03T08:55:44.472Z,10.50
2019-03-03T08:58:14.491Z,10.50
2019-03-03T09:00:44.519Z,10.60
2019-03-03T09:03:29.624Z,10.50
2019-03-03T09:06:15.700Z,10.50
2019-03-03T09:08:48.204Z,10.50
2019-03-03T09:11:27.375Z,10.50
2019-03-03T09:14:06.628Z,10.60
2019-03-03T09:16:42.575Z,10.60
2019-03-03T09:19:24.659Z,10.60
2019-03-03T09:22:04.780Z,10.70
2019-03-03T09:24:50.306Z,10.70
2019-03-03T09:27:22.796Z,10.70
2019-03-03T09:29:55.971Z,10.70
2019-03-03T09:32:31.543Z,10.70
2019-03-03T09:35:13.655Z,10.70
2019-03-03T09:37:46.543Z,10.70
2019-03-03T09:40:28.523Z,10.70
2019-03-03T09:43:01.017Z,10.80
2019-03-03T09:45:40.396Z,10.80
2019-03-03T09:48:16.446Z,10.90
2019-03-03T09:51:02.711Z,10.80
2019-03-03T09:53:38.676Z,10.90
2019-03-03T09:56:14.543Z,10.90
2019-03-03T09:58:53.212Z,11.00
2019-03-03T10:01:26.100Z,11.00
2019-03-03T10:03:56.120Z,11.10
2019-03-03T10:06:34.963Z,11.10
2019-03-03T10:09:17.947Z,11.20
2019-03-03T10:11:47.976Z,11.10
2019-03-03T10:14:20.721Z,11.20
2019-03-03T10:17:05.767Z,11.30
2019-03-03T10:19:35.807Z,11.30
2019-03-03T10:22:23.615Z,11.20
2019-03-03T10:24:53.640Z,11.20
2019-03-03T10:27:26.439Z,11.20
2019-03-03T10:29:56.519Z,11.20
2019-03-03T10:32:26.540Z,11.20
2019-03-03T10:34:56.576Z,11.20
2019-03-03T10:37:29.244Z,11.10
2019-03-03T10:40:02.247Z,11.10
2019-03-03T10:42:32.268Z,11.10
2019-03-03T10:45:18.739Z,11.10
2019-03-03T10:48:05.224Z,11.10
2019-03-03T10:50:35.270Z,11.10
2019-03-03T10:53:14.296Z,11.10
2019-03-03T10:55:44.332Z,11.10
2019-03-03T10:58:29.344Z,11.10
2019-03-03T11:01:05.144Z,11.10
2019-03-03T11:03:41.129Z,11.30
2019-03-03T11:06:11.331Z,11.30
2019-03-03T11:08:57.891Z,11.30
2019-03-03T11:11:44.347Z,11.40
2019-03-03T11:14:20.256Z,11.50
2019-03-03T11:16:59.574Z,11.60
2019-03-03T11:19:29.564Z,11.60
2019-03-03T11:22:15.752Z,11.70
2019-03-03T11:24:54.904Z,11.70
2019-03-03T11:27:41.460Z,11.80
2019-03-03T11:30:17.932Z,11.80
2019-03-03T11:32:53.893Z,11.80
2019-03-03T11:35:40.528Z,11.80
2019-03-03T11:38:16.365Z,11.80
2019-03-03T11:40:58.338Z,11.80
2019-03-03T11:43:30.939Z,11.90
2019-03-03T11:46:06.795Z,12.00
2019-03-03T11:48:53.065Z,12.20
2019-03-03T11:51:39.544Z,12.40
2019-03-03T11:54:15.784Z,12.60
2019-03-03T11:56:45.806Z,12.70
2019-03-03T11:59:18.548Z,12.70
2019-03-03T12:02:05.054Z,12.60
2019-03-03T12:04:35.078Z,12.50
2019-03-03T12:07:05.169Z,12.60
2019-03-03T12:09:37.856Z,12.60
2019-03-03T12:12:24.613Z,12.60
2019-03-03T12:14:54.643Z,12.60
2019-03-03T12:17:27.153Z,12.70
2019-03-03T12:20:13.804Z,12.60
2019-03-03T12:22:43.821Z,12.50
2019-03-03T12:25:13.902Z,12.50
2019-03-03T12:28:00.335Z,12.50
2019-03-03T12:30:33.324Z,12.40
2019-03-03T12:33:03.348Z,12.40
2019-03-03T12:35:48.475Z,12.40
2019-03-03T12:38:27.633Z,12.40
2019-03-03T12:41:03.475Z,12.40
2019-03-03T12:43:33.498Z,12.30
2019-03-03T12:46:09.240Z,12.30
2019-03-03T12:48:42.241Z,12.30
2019-03-03T12:51:17.848Z,12.40
2019-03-03T12:53:50.800Z,12.40
2019-03-03T12:56:26.952Z,12.30
2019-03-03T12:58:59.678Z,12.30
2019-03-03T13:01:32.200Z,12.30
2019-03-03T13:04:18.505Z,12.20
2019-03-03T13:07:04.628Z,12.10
2019-03-03T13:09:50.004Z,12.00
2019-03-03T13:12:29.068Z,12.00
2019-03-03T13:15:01.812Z,11.90
2019-03-03T13:17:47.948Z,11.90
2019-03-03T13:20:13.515Z,11.90
2019-03-03T13:22:49.385Z,12.00
2019-03-03T13:25:28.635Z,12.00
2019-03-03T13:28:04.641Z,12.10
2019-03-03T13:30:50.993Z,12.10
2019-03-03T13:33:39.427Z,12.10
2019-03-03T13:36:09.540Z,12.00
2019-03-03T13:38:39.562Z,12.20
2019-03-03T13:41:18.236Z,12.20
2019-03-03T13:43:46.612Z,12.30
2019-03-03T13:46:15.004Z,12.40
2019-03-03T13:48:43.391Z,12.50
2019-03-03T13:51:11.834Z,12.60
2019-03-03T13:53:40.450Z,12.60
2019-03-03T13:56:08.908Z,12.60
2019-03-03T13:58:37.313Z,12.70
2019-03-03T14:01:05.779Z,12.80
2019-03-03T14:03:34.160Z,12.70
2019-03-03T14:06:02.551Z,12.60
2019-03-03T14:08:31.009Z,12.60
2019-03-03T14:10:59.404Z,12.50
2019-03-03T14:13:27.790Z,12.50
2019-03-03T14:15:56.235Z,12.50
2019-03-03T14:18:24.635Z,12.50
2019-03-03T14:20:53.040Z,12.50
2019-03-03T14:23:21.409Z,12.50
2019-03-03T14:25:49.803Z,12.50
2019-03-03T14:28:18.180Z,12.50
2019-03-03T14:30:46.560Z,12.50
2019-03-03T14:33:14.960Z,12.50
2019-03-03T14:35:43.338Z,12.50
2019-03-03T14:38:11.725Z,12.50
2019-03-03T14:40:40.112Z,12.50
2019-03-03T14:43:08.832Z,12.50
2019-03-03T14:45:37.229Z,12.50
2019-03-03T14:48:05.620Z,12.50
2019-03-03T14:50:34.004Z,12.50
2019-03-03T14:53:02.389Z,12.60
2019-03-03T14:55:30.785Z,12.60
2019-03-03T14:57:59.161Z,12.60
2019-03-03T15:00:33.721Z,12.70
2019-03-03T15:03:04.231Z,12.80
2019-03-03T15:05:32.648Z,12.70
2019-03-03T15:08:01.026Z,12.80
2019-03-03T15:10:29.398Z,12.80
2019-03-03T15:12:57.872Z,12.90
2019-03-03T15:15:32.028Z,12.90
2019-03-03T15:18:00.420Z,13.00
2019-03-03T15:20:29.113Z,13.10
2019-03-03T15:22:57.488Z,13.10
2019-03-03T15:25:25.880Z,13.10
2019-03-03T15:27:54.340Z,13.00
2019-03-03T15:30:23.639Z,13.10
2019-03-03T15:32:52.186Z,13.10
2019-03-03T15:35:20.645Z,13.00
2019-03-03T15:37:49.019Z,13.00
2019-03-03T15:40:24.932Z,12.90
2019-03-03T15:42:53.487Z,12.90
2019-03-03T15:45:23.640Z,12.90
2019-03-03T15:47:52.011Z,12.80
2019-03-03T15:50:21.844Z,12.90
2019-03-03T15:52:50.296Z,12.90
2019-03-03T15:55:21.091Z,12.90
2019-03-03T15:57:49.472Z,12.90
2019-03-03T16:00:41.067Z,12.90
2019-03-03T16:03:09.538Z,12.90
2019-03-03T16:05:37.912Z,12.90
2019-03-03T16:08:06.300Z,12.90
2019-03-03T16:10:35.524Z,12.90
2019-03-03T16:13:04.046Z,13.00
2019-03-03T16:15:32.451Z,12.90
2019-03-03T16:18:00.844Z,13.00
2019-03-03T16:20:29.228Z,13.00
2019-03-03T16:22:57.604Z,13.10
2019-03-03T16:25:26.227Z,13.00
2019-03-03T16:27:54.672Z,13.00
2019-03-03T16:30:24.200Z,13.00
2019-03-03T16:32:52.580Z,13.00
2019-03-03T16:35:20.968Z,13.00
2019-03-03T16:37:49.420Z,12.90
2019-03-03T16:40:20.425Z,13.00
2019-03-03T16:42:48.800Z,13.00
2019-03-03T16:45:17.552Z,13.00
2019-03-03T16:47:45.999Z,12.90
2019-03-03T16:50:21.450Z,13.00
2019-03-03T16:52:49.997Z,12.90
2019-03-03T16:55:19.639Z,12.90
2019-03-03T16:57:48.021Z,13.00
2019-03-03T17:00:26.338Z,12.90
2019-03-03T17:02:54.723Z,13.00
2019-03-03T17:05:24.752Z,12.90
2019-03-03T17:07:53.152Z,12.90
2019-03-03T17:10:21.535Z,13.00
2019-03-03T17:12:49.923Z,12.90
2019-03-03T17:15:23.111Z,12.90
2019-03-03T17:17:51.671Z,12.80
2019-03-03T17:20:20.048Z,12.80
2019-03-03T17:22:48.443Z,12.80
2019-03-03T17:25:21.882Z,12.90
2019-03-03T17:27:50.329Z,12.80
2019-03-03T17:30:20.899Z,12.70
2019-03-03T17:32:49.275Z,12.60
2019-03-03T17:35:17.660Z,12.70
2019-03-03T17:37:46.132Z,12.70
2019-03-03T17:40:20.040Z,12.70
2019-03-03T17:42:48.432Z,12.60
2019-03-03T17:45:18.952Z,12.60
2019-03-03T17:47:49.280Z,12.60
2019-03-03T17:50:30.841Z,12.50
2019-03-03T17:52:59.304Z,12.60
2019-03-03T17:55:27.757Z,12.60
2019-03-03T17:57:56.215Z,12.60
2019-03-03T18:00:27.087Z,12.60
2019-03-03T18:02:55.631Z,12.60
2019-03-03T18:05:24.012Z,12.60
2019-03-03T18:07:52.483Z,12.60
2019-03-03T18:10:20.859Z,12.60
2019-03-03T18:12:49.304Z,12.60
2019-03-03T18:15:18.039Z,12.70
2019-03-03T18:17:46.430Z,12.70
2019-03-03T18:20:19.505Z,12.70
2019-03-03T18:22:48.323Z,12.70
2019-03-03T18:25:21.530Z,12.70
2019-03-03T18:27:50.079Z,12.80
2019-03-03T18:30:25.848Z,12.80
2019-03-03T18:32:54.232Z,12.90
2019-03-03T18:35:22.617Z,12.90
2019-03-03T18:37:51.063Z,12.90
2019-03-03T18:40:24.244Z,13.00
2019-03-03T18:42:52.696Z,12.90
2019-03-03T18:45:23.291Z,12.80
2019-03-03T18:47:51.810Z,12.80
2019-03-03T18:50:24.800Z,12.90
2019-03-03T18:52:53.195Z,13.00
2019-03-03T18:55:21.711Z,12.90
2019-03-03T18:57:50.098Z,12.70
2019-03-03T19:00:26.028Z,12.60
2019-03-03T19:02:54.525Z,12.50
2019-03-03T19:05:22.933Z,12.40
2019-03-03T19:07:51.399Z,12.40
2019-03-03T19:10:22.209Z,12.60
2019-03-03T19:12:50.588Z,12.60
2019-03-03T19:15:20.321Z,12.70
2019-03-03T19:17:48.700Z,12.70
2019-03-03T19:20:20.905Z,12.80
2019-03-03T19:22:49.360Z,12.90
2019-03-03T19:25:18.013Z,12.80
2019-03-03T19:27:46.397Z,12.80
2019-03-03T19:30:22.483Z,12.90
2019-03-03T19:33:02.871Z,12.90
2019-03-03T19:35:31.253Z,12.80
2019-03-03T19:37:59.639Z,12.80
2019-03-03T19:40:28.022Z,12.70
2019-03-03T19:42:56.399Z,12.80
2019-03-03T19:45:42.341Z,12.80
2019-03-03T19:48:11.100Z,12.80
2019-03-03T19:50:39.667Z,12.90
2019-03-03T19:53:08.041Z,13.00
2019-03-03T19:55:36.487Z,12.90
2019-03-03T19:58:05.217Z,13.00
2019-03-03T20:00:38.716Z,12.90
2019-03-03T20:03:05.895Z,13.00
2019-03-03T20:05:34.338Z,13.10
2019-03-03T20:08:02.720Z,13.10
2019-03-03T20:10:31.109Z,13.10
2019-03-03T20:12:59.479Z,13.10
2019-03-03T20:15:27.877Z,13.10
2019-03-03T20:17:56.255Z,13.00
2019-03-03T20:20:24.639Z,13.00
2019-03-03T20:22:53.019Z,13.00
2019-03-03T20:25:21.407Z,13.00
2019-03-03T20:27:49.784Z,13.10
2019-03-03T20:30:25.244Z,13.10
2019-03-03T20:32:53.627Z,13.10
2019-03-03T20:35:22.143Z,13.10
2019-03-03T20:37:50.543Z,13.10
2019-03-03T20:40:23.885Z,13.10
2019-03-03T20:42:53.516Z,13.10
2019-03-03T20:45:29.456Z,13.00
2019-03-03T20:47:57.854Z,13.10
2019-03-03T20:50:26.228Z,13.00
2019-03-03T20:52:54.620Z,13.10
2019-03-03T20:55:27.772Z,13.20
2019-03-03T20:57:56.148Z,13.10
2019-03-03T21:00:26.479Z,13.10
2019-03-03T21:02:55.004Z,13.10
2019-03-03T21:05:23.524Z,13.00
2019-03-03T21:07:52.236Z,13.00
2019-03-03T21:10:30.968Z,13.00
2019-03-03T21:12:59.378Z,13.00
2019-03-03T21:15:27.819Z,13.10
2019-03-03T21:17:56.211Z,13.10
2019-03-03T21:20:25.237Z,13.10
2019-03-03T21:22:53.631Z,13.10
2019-03-03T21:25:22.016Z,13.30
2019-03-03T21:27:50.405Z,13.30
2019-03-03T21:30:26.997Z,13.30
2019-03-03T21:32:55.389Z,13.30
2019-03-03T21:35:23.784Z,13.20
2019-03-03T21:37:52.345Z,13.30
2019-03-03T21:40:21.888Z,13.30
2019-03-03T21:42:50.264Z,13.30
2019-03-03T21:45:27.600Z,13.40
2019-03-03T21:47:56.357Z,13.40
2019-03-03T21:50:26.001Z,13.30
2019-03-03T21:52:54.851Z,13.30
2019-03-03T21:55:23.266Z,13.30
2019-03-03T21:57:51.718Z,13.30
2019-03-03T22:00:25.589Z,13.20
2019-03-03T22:02:54.065Z,13.30
2019-03-03T22:05:22.444Z,13.30
2019-03-03T22:07:50.840Z,13.40
2019-03-03T22:10:19.232Z,13.30
2019-03-03T22:12:47.612Z,13.30
2019-03-03T22:15:16.017Z,13.40
2019-03-03T22:17:44.404Z,13.40
2019-03-03T22:20:12.780Z,13.30
2019-03-03T22:22:41.184Z,13.10
2019-03-03T22:25:12.740Z,13.10
2019-03-03T22:27:41.138Z,13.10
2019-03-03T22:30:14.856Z,13.10
2019-03-03T22:32:43.252Z,13.10
2019-03-03T22:35:11.632Z,13.00
2019-03-03T22:37:40.016Z,13.00
2019-03-03T22:40:14.115Z,13.00
2019-03-03T22:42:42.507Z,12.90
2019-03-03T22:45:15.648Z,12.80
2019-03-03T22:47:44.296Z,12.70
2019-03-03T22:50:16.895Z,12.70
2019-03-03T22:52:45.276Z,12.70
2019-03-03T22:55:15.884Z,12.70
2019-03-03T22:57:44.283Z,12.80
2019-03-03T23:00:52.815Z,12.70
2019-03-03T23:03:36.366Z,12.80
2019-03-03T23:06:25.695Z,12.90
2019-03-03T23:09:12.220Z,12.90
2019-03-03T23:11:48.811Z,12.90
2019-03-03T23:14:23.232Z,12.80
2019-03-03T23:17:06.627Z,12.90
2019-03-03T23:19:56.000Z,12.90
2019-03-03T23:22:39.577Z,12.90
2019-03-03T23:25:45.257Z,12.90
2019-03-03T23:28:13.625Z,13.10
2019-03-03T23:30:42.008Z,13.10
2019-03-03T23:33:10.387Z,13.20
2019-03-03T23:35:38.776Z,13.30
2019-03-03T23:38:07.168Z,13.30
2019-03-03T23:40:35.563Z,13.30
2019-03-03T23:43:04.112Z,13.30
2019-03-03T23:45:32.507Z,13.30
2019-03-03T23:48:00.884Z,13.40
2019-03-03T23:50:29.495Z,13.50
2019-03-03T23:52:57.883Z,13.60
2019-03-03T23:55:26.274Z,13.60
2019-03-03T23:57:54.684Z,13.50
